createdAt,value
2023-05-12T00:02:17.636Z,14.70
2023-05-12T00:04:44.428Z,14.70
2023-05-12T00:07:11.295Z,14.70
2023-05-12T00:09:38.039Z,14.70
2023-05-12T00:12:05.229Z,14.60
2023-05-12T00:14:31.957Z,14.60
2023-05-12T00:16:58.821Z,14.60
2023-05-12T00:19:25.620Z,14.60
2023-05-12T00:21:52.331Z,14.60
2023-05-12T00:24:19.055Z,14.50
2023-05-12T00:26:45.789Z,14.50
2023-05-12T00:29:12.515Z,14.50
2023-05-12T00:31:39.239Z,14.50
2023-05-12T00:34:06.064Z,14.50
2023-05-12T00:36:32.922Z,14.40
2023-05-12T00:38:59.700Z,14.40
2023-05-12T00:41:26.530Z,14.40
2023-05-12T00:43:53.228Z,14.40
2023-05-12T00:46:21.271Z,14.40
2023-05-12T00:48:48.425Z,14.40
2023-05-12T00:51:16.601Z,14.30
2023-05-12T00:53:50.008Z,14.40
2023-05-12T00:56:18.800Z,14.30
2023-05-12T00:58:46.017Z,14.30
2023-05-12T01:01:13.014Z,14.40
2023-05-12T01:03:39.886Z,14.30
2023-05-12T01:06:13.385Z,14.30
2023-05-12T01:08:41.542Z,14.20
2023-05-12T01:11:08.279Z,14.20
2023-05-12T01:13:36.038Z,14.20
2023-05-12T01:16:03.109Z,14.20
2023-05-12T01:18:31.747Z,14.20
2023-05-12T01:20:59.566Z,14.20
2023-05-12T01:23:28.617Z,14.20
2023-05-12T01:25:56.062Z,14.10
2023-05-12T01:28:23.031Z,14.10
2023-05-12T01:30:50.589Z,14.10
2023-05-12T01:33:17.347Z,14.10
2023-05-12T01:35:44.172Z,14.10
2023-05-12T01:38:10.854Z,14.10
2023-05-12T01:40:37.660Z,14.10
2023-05-12T01:43:04.636Z,14.10
2023-05-12T01:45:31.365Z,14.10
2023-05-12T01:47:58.133Z,14.10
2023-05-12T01:50:24.963Z,14.10
2023-05-12T01:52:51.781Z,14.10
2023-05-12T01:55:18.586Z,14.00
2023-05-12T01:57:45.709Z,14.00
2023-05-12T02:00:12.949Z,14.00
2023-05-12T02:02:41.551Z,14.00
2023-05-12T02:05:10.020Z,14.00
2023-05-12T02:07:36.778Z,14.00
2023-05-12T02:10:03.935Z,14.00
2023-05-12T02:12:31.105Z,14.00
2023-05-12T02:14:57.815Z,14.00
2023-05-12T02:17:25.151Z,14.00
2023-05-12T02:19:52.150Z,13.90
2023-05-12T02:22:18.855Z,13.90
2023-05-12T02:24:45.790Z,13.90
2023-05-12T02:27:12.555Z,13.80
2023-05-12T02:29:39.281Z,13.80
2023-05-12T02:32:06.253Z,13.70
2023-05-12T02:34:33.050Z,13.60
2023-05-12T02:36:59.803Z,13.60
2023-05-12T02:39:26.518Z,13.60
2023-05-12T02:41:53.260Z,13.60
2023-05-12T02:44:22.336Z,13.60
2023-05-12T02:46:49.187Z,13.60
2023-05-12T02:49:16.229Z,13.60
2023-05-12T02:51:42.968Z,13.60
2023-05-12T02:54:09.672Z,13.60
2023-05-12T02:56:36.714Z,13.50
2023-05-12T02:59:03.427Z,13.50
2023-05-12T03:01:30.311Z,13.50
2023-05-12T03:03:57.261Z,13.50
2023-05-12T03:06:24.025Z,13.40
2023-05-12T03:08:50.773Z,13.40
2023-05-12T03:11:17.608Z,13.40
2023-05-12T03:13:44.438Z,13.40
2023-05-12T03:16:11.153Z,13.40
2023-05-12T03:18:37.913Z,13.40
2023-05-12T03:21:05.213Z,13.40
2023-05-12T03:23:31.969Z,13.30
2023-05-12T03:25:58.707Z,13.30
2023-05-12T03:28:25.710Z,13.40
2023-05-12T03:30:52.469Z,13.30
2023-05-12T03:33:19.214Z,13.30
2023-05-12T03:35:45.941Z,13.30
2023-05-12T03:38:12.708Z,13.30
2023-05-12T03:40:39.433Z,13.20
2023-05-12T03:43:06.235Z,13.20
2023-05-12T03:45:32.932Z,13.10
2023-05-12T03:47:59.701Z,13.10
2023-05-12T03:50:26.456Z,13.00
2023-05-12T03:52:56.014Z,13.00
2023-05-12T03:55:22.878Z,13.00
2023-05-12T03:57:50.145Z,12.90
2023-05-12T04:00:17.577Z,12.90
2023-05-12T04:02:44.747Z,12.90
2023-05-12T04:05:11.666Z,12.90
2023-05-12T04:07:38.477Z,12.80
2023-05-12T04:10:05.621Z,12.80
2023-05-12T04:12:32.810Z,12.80
2023-05-12T04:15:00.049Z,12.80
2023-05-12T04:17:26.822Z,12.80
2023-05-12T04:19:53.701Z,12.80
2023-05-12T04:22:20.887Z,12.80
2023-05-12T04:24:48.329Z,12.80
2023-05-12T04:27:15.172Z,12.70
2023-05-12T04:29:41.944Z,12.70
2023-05-12T04:32:09.212Z,12.70
2023-05-12T04:34:36.059Z,12.70
2023-05-12T04:37:02.796Z,12.60
2023-05-12T04:39:29.537Z,12.60
2023-05-12T04:41:56.253Z,12.60
2023-05-12T04:44:22.981Z,12.60
2023-05-12T04:46:53.360Z,12.60
2023-05-12T04:49:20.130Z,12.60
2023-05-12T04:51:46.860Z,12.50
2023-05-12T04:54:13.740Z,12.50
2023-05-12T04:56:40.465Z,12.50
2023-05-12T04:59:07.237Z,12.50
2023-05-12T05:01:34.157Z,12.50
2023-05-12T05:04:00.914Z,12.40
2023-05-12T05:06:28.316Z,12.40
2023-05-12T05:08:56.324Z,12.40
2023-05-12T05:11:23.503Z,12.40
2023-05-12T05:13:50.407Z,12.40
2023-05-12T05:16:17.493Z,12.40
2023-05-12T05:18:46.697Z,12.30
2023-05-12T05:21:16.462Z,12.30
2023-05-12T05:23:43.306Z,12.30
2023-05-12T05:26:10.136Z,12.20
2023-05-12T05:28:39.650Z,12.20
2023-05-12T05:31:06.836Z,12.20
2023-05-12T05:33:33.706Z,12.20
2023-05-12T05:36:00.486Z,12.10
2023-05-12T05:38:27.212Z,12.10
2023-05-12T05:40:54.698Z,12.10
2023-05-12T05:43:21.677Z,12.10
2023-05-12T05:45:49.956Z,12.10
2023-05-12T05:48:17.069Z,12.10
2023-05-12T05:50:44.018Z,12.10
2023-05-12T05:53:10.745Z,12.10
2023-05-12T05:55:37.456Z,12.10
2023-05-12T05:58:04.200Z,12.10
2023-05-12T06:00:31.179Z,12.10
2023-05-12T06:02:57.965Z,12.10
2023-05-12T06:05:24.728Z,12.10
2023-05-12T06:07:51.504Z,12.10
2023-05-12T06:10:18.662Z,12.10
2023-05-12T06:12:45.914Z,12.10
2023-05-12T06:15:12.732Z,12.00
2023-05-12T06:17:39.602Z,12.10
2023-05-12T06:20:07.399Z,12.10
2023-05-12T06:22:37.048Z,12.00
2023-05-12T06:25:04.056Z,12.00
2023-05-12T06:27:31.012Z,12.00
2023-05-12T06:29:57.772Z,12.10
2023-05-12T06:32:24.565Z,12.00
2023-05-12T06:34:51.328Z,12.10
2023-05-12T06:37:18.145Z,12.10
2023-05-12T06:39:44.899Z,12.00
2023-05-12T06:42:11.671Z,12.10
2023-05-12T06:44:40.594Z,12.10
2023-05-12T06:47:08.575Z,12.10
2023-05-12T06:49:38.728Z,12.10
2023-05-12T06:52:06.581Z,12.10
2023-05-12T06:54:33.548Z,12.10
2023-05-12T06:57:00.648Z,12.10
2023-05-12T06:59:27.633Z,12.10
2023-05-12T07:01:54.479Z,12.10
2023-05-12T07:04:21.681Z,12.10
2023-05-12T07:06:48.523Z,12.10
2023-05-12T07:09:15.419Z,12.20
2023-05-12T07:11:42.270Z,12.20
2023-05-12T07:14:08.990Z,12.20
2023-05-12T07:16:35.907Z,12.20
2023-05-12T07:19:02.930Z,12.20
2023-05-12T07:21:29.869Z,12.20
2023-05-12T07:23:56.830Z,12.30
2023-05-12T07:26:24.325Z,12.30
2023-05-12T07:28:51.087Z,12.30
2023-05-12T07:31:17.898Z,12.30
2023-05-12T07:33:44.658Z,12.30
2023-05-12T07:36:11.389Z,12.30
2023-05-12T07:38:38.242Z,12.30
2023-05-12T07:41:05.063Z,12.30
2023-05-12T07:43:31.850Z,12.40
2023-05-12T07:46:00.881Z,12.40
2023-05-12T07:48:27.741Z,12.40
2023-05-12T07:50:54.840Z,12.40
2023-05-12T07:53:21.649Z,12.40
2023-05-12T07:55:48.467Z,12.50
2023-05-12T07:58:15.231Z,12.50
2023-05-12T08:00:42.107Z,12.50
2023-05-12T08:03:08.963Z,12.50
2023-05-12T08:05:35.856Z,12.50
2023-05-12T08:08:02.623Z,12.50
2023-05-12T08:10:30.042Z,12.60
2023-05-12T08:12:56.854Z,12.60
2023-05-12T08:15:23.678Z,12.60
2023-05-12T08:17:50.471Z,12.70
2023-05-12T08:20:17.308Z,12.70
2023-05-12T08:22:44.619Z,12.70
2023-05-12T08:25:12.700Z,12.70
2023-05-12T08:27:39.784Z,12.80
2023-05-12T08:30:07.079Z,12.80
2023-05-12T08:32:33.848Z,12.90
2023-05-12T08:35:01.101Z,12.90
2023-05-12T08:37:28.007Z,13.00
2023-05-12T08:39:54.902Z,13.00
2023-05-12T08:42:43.239Z,13.10
2023-05-12T08:45:11.224Z,13.10
2023-05-12T08:47:38.594Z,13.10
2023-05-12T08:50:06.029Z,13.10
2023-05-12T08:52:33.973Z,13.10
2023-05-12T08:55:03.133Z,13.20
2023-05-12T08:57:31.200Z,13.20
2023-05-12T09:00:00.007Z,13.40
2023-05-12T09:02:30.903Z,13.50
2023-05-12T09:05:05.079Z,13.60
2023-05-12T09:07:32.605Z,13.60
2023-05-12T09:10:01.002Z,13.80
2023-05-12T09:12:31.944Z,13.90
2023-05-12T09:15:04.546Z,14.00
2023-05-12T09:17:31.446Z,14.10
2023-05-12T09:19:58.294Z,14.20
2023-05-12T09:22:33.624Z,14.30
2023-05-12T09:25:00.652Z,14.40
2023-05-12T09:27:28.843Z,14.40
2023-05-12T09:29:59.738Z,14.50
2023-05-12T09:32:34.469Z,14.50
2023-05-12T09:35:11.057Z,14.70
2023-05-12T09:37:38.733Z,14.70
2023-05-12T09:40:07.506Z,14.70
2023-05-12T09:42:35.980Z,14.70
2023-05-12T09:45:07.052Z,14.70
2023-05-12T09:47:35.722Z,14.80
2023-05-12T09:50:04.234Z,14.80
2023-05-12T09:52:37.837Z,14.80
2023-05-12T09:55:13.709Z,14.90
2023-05-12T09:57:44.447Z,15.00
2023-05-12T10:00:34.549Z,15.00
2023-05-12T10:03:14.372Z,15.10
2023-05-12T10:05:56.176Z,15.10
2023-05-12T10:08:31.682Z,15.10
2023-05-12T10:11:00.057Z,15.10
2023-05-12T10:13:27.007Z,15.10
2023-05-12T10:15:56.496Z,15.10
2023-05-12T10:18:24.260Z,15.20
2023-05-12T10:20:52.592Z,15.30
2023-05-12T10:23:20.086Z,15.30
2023-05-12T10:25:47.773Z,15.50
2023-05-12T10:28:14.534Z,15.70
2023-05-12T10:30:41.560Z,15.70
2023-05-12T10:33:09.899Z,15.70
2023-05-12T10:35:37.763Z,15.80
2023-05-12T10:38:08.912Z,15.80
2023-05-12T10:40:35.951Z,15.80
2023-05-12T10:43:03.187Z,15.80
2023-05-12T10:45:35.680Z,15.80
2023-05-12T10:48:07.046Z,16.00
2023-05-12T10:50:33.989Z,16.10
2023-05-12T10:53:00.833Z,16.10
2023-05-12T10:55:31.856Z,16.10
2023-05-12T10:58:12.560Z,16.00
2023-05-12T11:00:47.935Z,16.00
2023-05-12T11:03:20.645Z,15.90
2023-05-12T11:05:59.152Z,16.00
2023-05-12T11:08:27.493Z,16.10
2023-05-12T11:10:55.313Z,16.20
2023-05-12T11:13:22.081Z,16.50
2023-05-12T11:15:50.104Z,16.70
2023-05-12T11:18:21.285Z,16.60
2023-05-12T11:20:48.313Z,16.60
2023-05-12T11:23:29.497Z,16.50
2023-05-12T11:25:57.169Z,16.60
2023-05-12T11:28:24.134Z,16.60
2023-05-12T11:30:54.976Z,16.50
2023-05-12T11:33:23.128Z,16.50
2023-05-12T11:35:50.563Z,16.50
2023-05-12T11:38:18.630Z,16.40
2023-05-12T11:40:45.478Z,16.50
2023-05-12T11:43:14.602Z,16.60
2023-05-12T11:45:42.091Z,16.60
2023-05-12T11:48:11.515Z,16.60
2023-05-12T11:50:45.413Z,16.70
2023-05-12T11:53:18.713Z,16.80
2023-05-12T11:55:51.051Z,16.90
2023-05-12T11:58:26.771Z,17.10
2023-05-12T12:00:54.338Z,17.20
2023-05-12T12:03:21.362Z,17.30
2023-05-12T12:06:02.232Z,17.30
2023-05-12T12:08:29.150Z,17.40
2023-05-12T12:10:55.951Z,17.70
2023-05-12T12:13:23.957Z,17.70
2023-05-12T12:15:51.374Z,17.70
2023-05-12T12:18:19.167Z,17.80
2023-05-12T12:20:48.752Z,17.90
2023-05-12T12:23:15.551Z,17.90
2023-05-12T12:25:43.549Z,18.00
2023-05-12T12:28:10.299Z,18.00
2023-05-12T12:30:37.423Z,18.00
2023-05-12T12:33:04.253Z,18.10
2023-05-12T12:35:31.200Z,18.10
2023-05-12T12:37:58.657Z,18.10
2023-05-12T12:40:25.474Z,18.10
2023-05-12T12:42:52.206Z,18.10
2023-05-12T12:45:20.433Z,18.10
2023-05-12T12:47:47.716Z,18.30
2023-05-12T12:50:15.217Z,18.50
2023-05-12T12:52:42.152Z,18.60
2023-05-12T12:55:09.886Z,18.80
2023-05-12T12:57:36.764Z,18.80
2023-05-12T13:00:04.603Z,18.90
2023-05-12T13:02:31.472Z,19.00
2023-05-12T13:04:58.338Z,19.00
2023-05-12T13:07:25.157Z,19.10
2023-05-12T13:09:52.098Z,19.10
2023-05-12T13:12:18.877Z,19.10
2023-05-12T13:14:45.606Z,19.20
2023-05-12T13:17:12.387Z,19.20
2023-05-12T13:19:39.231Z,19.20
2023-05-12T13:22:06.093Z,19.30
2023-05-12T13:24:32.953Z,19.30
2023-05-12T13:26:59.862Z,19.50
2023-05-12T13:29:26.708Z,19.60
2023-05-12T13:31:54.376Z,19.70
2023-05-12T13:34:21.377Z,19.70
2023-05-12T13:36:48.525Z,19.60
2023-05-12T13:39:16.060Z,19.70
2023-05-12T13:41:43.841Z,19.70
2023-05-12T13:44:10.671Z,19.90
2023-05-12T13:46:37.434Z,20.00
2023-05-12T13:49:04.180Z,20.00
2023-05-12T13:51:32.361Z,19.90
2023-05-12T13:53:59.239Z,19.80
2023-05-12T13:56:26.088Z,19.90
2023-05-12T13:58:52.840Z,19.90
2023-05-12T14:01:19.715Z,19.90
2023-05-12T14:03:46.480Z,20.00
2023-05-12T14:06:13.232Z,20.00
2023-05-12T14:08:41.606Z,20.20
2023-05-12T14:11:08.589Z,20.50
2023-05-12T14:13:35.724Z,20.50
2023-05-12T14:16:02.682Z,20.50
2023-05-12T14:18:29.455Z,20.50
2023-05-12T14:20:56.732Z,20.50
2023-05-12T14:23:23.468Z,20.50
2023-05-12T14:25:50.274Z,20.60
2023-05-12T14:28:17.100Z,20.80
2023-05-12T14:30:45.234Z,20.90
2023-05-12T14:33:12.269Z,21.10
2023-05-12T14:35:39.049Z,21.00
2023-05-12T14:38:05.767Z,21.00
2023-05-12T14:40:32.627Z,21.00
2023-05-12T14:43:00.059Z,20.90
2023-05-12T14:45:27.191Z,20.80
2023-05-12T14:47:54.601Z,20.80
2023-05-12T14:50:21.684Z,20.80
2023-05-12T14:52:48.688Z,20.80
2023-05-12T14:55:17.257Z,20.70
2023-05-12T14:57:44.678Z,20.80
2023-05-12T15:00:14.124Z,20.80
2023-05-12T15:02:42.669Z,20.80
2023-05-12T15:05:10.599Z,20.80
2023-05-12T15:07:37.697Z,20.80
2023-05-12T15:10:05.857Z,20.80
2023-05-12T15:12:33.286Z,20.90
2023-05-12T15:15:02.216Z,20.80
2023-05-12T15:17:29.196Z,20.90
2023-05-12T15:19:56.435Z,20.90
2023-05-12T15:22:23.216Z,20.90
2023-05-12T15:24:50.017Z,20.90
2023-05-12T15:27:16.825Z,20.90
2023-05-12T15:29:43.924Z,21.00
2023-05-12T15:32:10.766Z,21.10
2023-05-12T15:34:37.532Z,21.10
2023-05-12T15:37:04.562Z,21.10
2023-05-12T15:39:31.590Z,21.20
2023-05-12T15:41:59.021Z,21.40
2023-05-12T15:44:25.896Z,21.50
2023-05-12T15:46:52.876Z,21.60
2023-05-12T15:49:19.829Z,21.60
2023-05-12T15:51:46.595Z,21.50
2023-05-12T15:54:13.348Z,21.40
2023-05-12T15:56:40.131Z,21.50
2023-05-12T15:59:07.509Z,21.50
2023-05-12T16:01:34.305Z,21.50
2023-05-12T16:04:01.343Z,21.70
2023-05-12T16:06:28.255Z,21.90
2023-05-12T16:08:55.036Z,21.90
2023-05-12T16:11:22.326Z,22.00
2023-05-12T16:13:49.138Z,22.20
2023-05-12T16:16:15.927Z,22.20
2023-05-12T16:18:43.611Z,22.20
2023-05-12T16:21:11.833Z,22.10
2023-05-12T16:23:38.883Z,21.90
2023-05-12T16:26:05.755Z,21.80
2023-05-12T16:28:34.523Z,21.70
2023-05-12T16:31:04.632Z,21.60
2023-05-12T16:33:31.394Z,21.60
2023-05-12T16:35:58.171Z,21.50
2023-05-12T16:38:24.951Z,21.50
2023-05-12T16:40:51.968Z,21.50
2023-05-12T16:43:18.812Z,21.40
2023-05-12T16:45:45.641Z,21.40
2023-05-12T16:48:12.525Z,21.50
2023-05-12T16:50:39.328Z,21.40
2023-05-12T16:53:06.118Z,21.40
2023-05-12T16:55:33.211Z,21.40
2023-05-12T16:58:00.087Z,21.40
2023-05-12T17:00:26.866Z,21.50
2023-05-12T17:02:53.746Z,21.50
2023-05-12T17:05:21.350Z,21.50
2023-05-12T17:07:48.500Z,21.50
2023-05-12T17:10:15.282Z,21.50
2023-05-12T17:12:42.444Z,21.50
2023-05-12T17:15:11.372Z,21.60
2023-05-12T17:17:38.303Z,21.60
2023-05-12T17:20:06.121Z,21.60
2023-05-12T17:22:34.949Z,21.50
2023-05-12T17:25:01.736Z,21.50
2023-05-12T17:27:28.602Z,21.50
2023-05-12T17:29:56.728Z,21.50
2023-05-12T17:32:23.483Z,21.50
2023-05-12T17:34:51.085Z,21.50
2023-05-12T17:37:18.167Z,21.60
2023-05-12T17:39:44.946Z,21.60
2023-05-12T17:42:11.849Z,21.60
2023-05-12T17:44:38.597Z,21.50
2023-05-12T17:47:05.742Z,21.50
2023-05-12T17:49:32.550Z,21.40
2023-05-12T17:51:59.409Z,21.40
2023-05-12T17:54:26.138Z,21.40
2023-05-12T17:56:52.958Z,21.40
2023-05-12T17:59:19.671Z,21.40
2023-05-12T18:01:46.499Z,21.40
2023-05-12T18:04:13.259Z,21.40
2023-05-12T18:06:40.097Z,21.40
2023-05-12T18:09:07.231Z,21.40
2023-05-12T18:11:37.154Z,21.40
2023-05-12T18:14:05.969Z,21.30
2023-05-12T18:16:33.337Z,21.30
2023-05-12T18:19:00.483Z,21.30
2023-05-12T18:21:27.472Z,21.30
2023-05-12T18:23:54.265Z,21.20
2023-05-12T18:26:21.335Z,21.10
2023-05-12T18:28:48.347Z,20.90
2023-05-12T18:31:16.664Z,20.90
2023-05-12T18:33:46.882Z,20.60
2023-05-12T18:36:13.769Z,20.50
2023-05-12T18:38:40.552Z,20.30
2023-05-12T18:41:07.580Z,20.20
2023-05-12T18:43:37.084Z,20.20
2023-05-12T18:46:04.079Z,20.00
2023-05-12T18:48:31.199Z,20.00
2023-05-12T18:50:58.073Z,19.90
2023-05-12T18:53:24.796Z,19.90
2023-05-12T18:55:51.671Z,19.80
2023-05-12T18:58:18.500Z,19.80
2023-05-12T19:00:47.654Z,19.90
2023-05-12T19:03:14.717Z,19.90
2023-05-12T19:05:44.424Z,19.90
2023-05-12T19:08:12.586Z,19.80
2023-05-12T19:10:40.117Z,19.80
2023-05-12T19:13:07.158Z,19.80
2023-05-12T19:15:33.989Z,19.80
2023-05-12T19:18:00.856Z,19.80
2023-05-12T19:20:28.982Z,19.70
2023-05-12T19:22:55.936Z,19.70
2023-05-12T19:25:23.085Z,19.70
2023-05-12T19:27:50.901Z,19.60
2023-05-12T19:30:17.812Z,19.60
2023-05-12T19:32:46.047Z,19.60
2023-05-12T19:35:14.704Z,19.60
2023-05-12T19:37:41.569Z,19.50
2023-05-12T19:40:08.890Z,19.50
2023-05-12T19:42:37.868Z,19.50
2023-05-12T19:45:05.439Z,19.50
2023-05-12T19:47:33.423Z,19.50
2023-05-12T19:50:00.597Z,19.50
2023-05-12T19:52:30.506Z,19.50
2023-05-12T19:54:57.609Z,19.50
2023-05-12T19:57:24.448Z,19.40
2023-05-12T19:59:51.274Z,19.40
2023-05-12T20:02:18.103Z,19.40
2023-05-12T20:04:45.033Z,19.30
2023-05-12T20:07:11.866Z,19.20
2023-05-12T20:09:38.670Z,19.20
2023-05-12T20:12:08.055Z,19.20
2023-05-12T20:14:35.673Z,19.10
2023-05-12T20:17:05.816Z,19.10
2023-05-12T20:19:35.903Z,19.10
2023-05-12T20:22:03.954Z,19.10
2023-05-12T20:24:30.964Z,19.00
2023-05-12T20:26:58.000Z,19.00
2023-05-12T20:29:25.976Z,18.90
2023-05-12T20:31:53.075Z,18.90
2023-05-12T20:34:20.216Z,18.80
2023-05-12T20:36:47.138Z,18.80
2023-05-12T20:39:18.819Z,18.80
2023-05-12T20:41:46.860Z,18.80
2023-05-12T20:44:13.692Z,18.80
2023-05-12T20:46:40.701Z,18.70
2023-05-12T20:49:07.592Z,18.80
2023-05-12T20:51:34.684Z,18.80
2023-05-12T20:54:01.518Z,18.80
2023-05-12T20:56:28.581Z,18.70
2023-05-12T20:58:57.794Z,18.60
2023-05-12T21:01:24.939Z,18.50
2023-05-12T21:03:51.948Z,18.60
2023-05-12T21:06:18.882Z,18.50
2023-05-12T21:08:46.870Z,18.50
2023-05-12T21:11:16.098Z,18.50
2023-05-12T21:13:44.444Z,18.50
2023-05-12T21:16:11.648Z,18.40
2023-05-12T21:18:38.545Z,18.40
2023-05-12T21:21:06.608Z,18.30
2023-05-12T21:23:34.471Z,18.30
2023-05-12T21:26:01.360Z,18.20
2023-05-12T21:28:28.383Z,18.20
2023-05-12T21:30:55.382Z,18.10
2023-05-12T21:33:22.452Z,18.10
2023-05-12T21:35:52.034Z,18.00
2023-05-12T21:38:20.648Z,17.90
2023-05-12T21:40:52.549Z,17.90
2023-05-12T21:43:19.307Z,17.70
2023-05-12T21:45:46.225Z,17.70
2023-05-12T21:48:13.107Z,17.70
2023-05-12T21:50:39.935Z,17.60
2023-05-12T21:53:06.695Z,17.70
2023-05-12T21:55:52.077Z,17.60
2023-05-12T21:58:37.539Z,17.50
2023-05-12T22:01:04.325Z,17.50
2023-05-12T22:03:31.164Z,17.50
2023-05-12T22:05:58.273Z,17.50
2023-05-12T22:08:25.096Z,17.40
2023-05-12T22:10:51.924Z,17.40
2023-05-12T22:13:19.253Z,17.30
2023-05-12T22:15:46.040Z,17.30
2023-05-12T22:18:13.136Z,17.30
2023-05-12T22:20:40.195Z,17.30
2023-05-12T22:23:06.969Z,17.20
2023-05-12T22:25:33.744Z,17.20
2023-05-12T22:28:00.623Z,17.20
2023-05-12T22:30:27.404Z,17.20
2023-05-12T22:32:54.179Z,17.10
2023-05-12T22:35:21.020Z,17.10
2023-05-12T22:37:48.857Z,17.10
2023-05-12T22:40:16.050Z,17.10
2023-05-12T22:42:42.989Z,17.10
2023-05-12T22:45:10.054Z,17.10
2023-05-12T22:47:36.948Z,17.10
2023-05-12T22:50:03.856Z,17.00
2023-05-12T22:52:30.637Z,17.00
2023-05-12T22:54:57.428Z,17.00
2023-05-12T22:57:24.268Z,16.90
2023-05-12T22:59:51.066Z,16.90
2023-05-12T23:02:17.881Z,16.80
2023-05-12T23:04:44.694Z,16.80
2023-05-12T23:07:11.474Z,16.70
2023-05-12T23:09:38.325Z,16.70
2023-05-12T23:12:05.610Z,16.60
2023-05-12T23:14:32.389Z,16.60
2023-05-12T23:16:59.234Z,16.60
2023-05-12T23:19:26.060Z,16.60
2023-05-12T23:21:52.805Z,16.60
2023-05-12T23:24:19.571Z,16.50
2023-05-12T23:26:46.452Z,16.50
2023-05-12T23:29:13.389Z,16.50
2023-05-12T23:31:40.307Z,16.50
2023-05-12T23:34:07.115Z,16.40
2023-05-12T23:36:33.852Z,16.40
2023-05-12T23:39:00.653Z,16.40
2023-05-12T23:41:31.462Z,16.30
2023-05-12T23:43:58.521Z,16.20
2023-05-12T23:46:25.903Z,16.20
2023-05-12T23:48:55.125Z,16.10
2023-05-12T23:51:22.651Z,16.10
2023-05-12T23:53:49.482Z,16.00
2023-05-12T23:56:16.212Z,16.00
2023-05-12T23:58:42.978Z,15.90
